Time;durP1;ratioP1;P1;durP2;ratioP2;P2;SDS_P1;SDS_P2;PMS_P1;PMS_P2;Temp;Humidity;BMP_temperature;BMP_pressure;BME280_temperature;BME280_humidity;BME280_pressure;Samples;Min_cycle;Max_cycle;Signal;HPM_P1;HPM_P2
2022/05/17 00:01:29;;;;;;;3.53;1.50;;;18.40;91.80;;;;;;4947460;29;20454;-66
2022/05/17 00:04:00;;;;;;;2.47;1.33;;;18.10;92.10;;;;;;4947515;29;20550;-67
2022/05/17 00:06:31;;;;;;;3.33;1.30;;;18.10;92.40;;;;;;4947385;29;20525;-67
2022/05/17 00:09:04;;;;;;;1.47;1.20;;;18.00;92.20;;;;;;4945944;29;20453;-66
2022/05/17 00:11:35;;;;;;;1.63;1.30;;;18.00;92.80;;;;;;4947605;29;20461;-66
2022/05/17 00:14:06;;;;;;;1.70;1.33;;;18.10;91.20;;;;;;4939226;29;20493;-67
2022/05/17 00:16:37;;;;;;;3.80;1.27;;;18.10;91.80;;;;;;4944904;29;20501;-66
2022/05/17 00:19:09;;;;;;;3.10;1.67;;;17.90;92.60;;;;;;4940276;29;20914;-66
2022/05/17 00:21:40;;;;;;;2.20;1.33;;;17.70;92.30;;;;;;4938322;29;20479;-65
2022/05/17 00:24:13;;;;;;;2.47;1.70;;;17.80;92.90;;;;;;4940488;29;20485;-66
2022/05/17 00:26:44;;;;;;;2.20;1.60;;;17.80;92.50;;;;;;4946004;29;20461;-66
2022/05/17 00:29:17;;;;;;;2.50;1.70;;;17.80;92.90;;;;;;4944139;29;20458;-66
2022/05/17 00:31:48;;;;;;;1.53;1.43;;;17.90;92.00;;;;;;4938468;29;20835;-65
2022/05/17 00:34:19;;;;;;;2.13;1.90;;;17.80;91.60;;;;;;4931824;29;20792;-66
2022/05/17 00:36:50;;;;;;;1.47;1.30;;;17.70;92.10;;;;;;4941173;29;20513;-67
2022/05/17 00:39:22;;;;;;;3.03;1.30;;;17.60;92.40;;;;;;4926136;29;20454;-66
2022/05/17 00:41:54;;;;;;;2.03;1.60;;;17.50;93.50;;;;;;4932177;29;20463;-66
2022/05/17 00:47:16;;;;;;;1.83;1.73;;;17.40;92.40;;;;;;4927576;29;20471;-67
2022/05/17 00:49:51;;;;;;;1.43;1.33;;;17.20;92.00;;;;;;4945206;29;20480;-67
2022/05/17 00:52:26;;;;;;;1.43;1.33;;;17.30;92.10;;;;;;4937473;29;20560;-68
2022/05/17 00:55:05;;;;;;;3.23;2.17;;;17.40;93.00;;;;;;4941430;29;20469;-68
2022/05/17 00:57:42;;;;;;;3.17;1.70;;;17.70;92.50;;;;;;4928086;29;20487;-66
2022/05/17 01:00:15;;;;;;;4.20;1.97;;;17.90;92.40;;;;;;4937500;29;20489;-65
2022/05/17 01:02:50;;;;;;;3.80;1.97;;;18.00;92.10;;;;;;4931981;29;20458;-67
2022/05/17 01:05:25;;;;;;;3.37;1.90;;;18.00;92.20;;;;;;4944913;29;20588;-66
2022/05/17 01:07:58;;;;;;;3.20;1.70;;;17.90;92.20;;;;;;4945003;29;20457;-66
2022/05/17 01:10:33;;;;;;;2.30;2.10;;;17.90;91.20;;;;;;4928961;29;20463;-66
2022/05/17 01:15:54;;;;;;;2.40;2.20;;;17.60;91.40;;;;;;4946183;29;20783;-65
2022/05/17 01:18:26;;;;;;;3.10;2.40;;;17.20;92.50;;;;;;4944392;29;20957;-63
2022/05/17 01:21:01;;;;;;;3.17;2.37;;;17.00;92.70;;;;;;4927218;29;20466;-64
2022/05/17 01:23:32;;;;;;;2.63;2.10;;;16.90;94.30;;;;;;4932331;29;20488;-63
2022/05/17 01:26:04;;;;;;;3.50;1.80;;;16.80;92.70;;;;;;4927035;29;20542;-64
2022/05/17 01:28:38;;;;;;;4.20;2.07;;;16.70;92.30;;;;;;4943140;29;20473;-65
2022/05/17 01:31:09;;;;;;;3.13;2.50;;;16.60;92.80;;;;;;4944731;29;20464;-63
2022/05/17 01:33:41;;;;;;;2.50;2.30;;;16.60;93.00;;;;;;4945802;29;20472;-63
2022/05/17 01:36:21;;;;;;;3.30;2.20;;;16.40;93.30;;;;;;4937057;29;20480;-65
2022/05/17 01:38:52;;;;;;;2.17;1.87;;;16.50;94.00;;;;;;4940279;29;20501;-65
2022/05/17 01:41:25;;;;;;;5.13;2.30;;;16.60;92.80;;;;;;4935403;29;20478;-66
2022/05/17 01:43:55;;;;;;;3.43;2.03;;;16.50;93.40;;;;;;4944952;29;20462;-66
2022/05/17 01:46:26;;;;;;;2.63;2.43;;;16.40;93.60;;;;;;4936999;29;20477;-66
2022/05/17 01:48:57;;;;;;;3.10;1.80;;;16.40;93.30;;;;;;4937603;29;20490;-66
2022/05/17 01:51:31;;;;;;;2.70;1.80;;;16.40;93.40;;;;;;4945203;29;20460;-67
2022/05/17 01:54:02;;;;;;;4.37;2.53;;;16.40;92.60;;;;;;4943843;29;20461;-67
2022/05/17 01:56:33;;;;;;;2.70;2.20;;;16.30;93.50;;;;;;4930959;29;20471;-68
2022/05/17 01:59:04;;;;;;;3.00;2.00;;;16.20;94.30;;;;;;4940312;29;20470;-68
2022/05/17 02:01:35;;;;;;;2.30;1.83;;;16.20;93.60;;;;;;4926984;29;20450;-69
2022/05/17 02:04:06;;;;;;;3.97;2.00;;;16.10;94.00;;;;;;4941597;29;20932;-69
2022/05/17 02:06:39;;;;;;;3.80;2.50;;;16.00;93.10;;;;;;4943314;29;20977;-69
2022/05/17 02:09:10;;;;;;;3.40;2.20;;;15.90;94.60;;;;;;4937437;29;20466;-70
2022/05/17 02:11:41;;;;;;;3.27;2.13;;;15.90;94.80;;;;;;4929372;29;20470;-69
2022/05/17 02:14:11;;;;;;;3.83;2.43;;;15.80;94.30;;;;;;4940884;29;20494;-72
2022/05/17 02:16:44;;;;;;;3.10;2.10;;;15.80;94.30;;;;;;4943554;29;20468;-71
2022/05/17 02:19:19;;;;;;;3.70;2.20;;;15.80;94.30;;;;;;4944922;29;20541;-69
2022/05/17 02:21:52;;;;;;;3.27;2.10;;;15.80;94.90;;;;;;4943768;29;20477;-69
2022/05/17 02:24:27;;;;;;;2.00;1.67;;;15.90;94.90;;;;;;4942392;29;20480;-69
2022/05/17 02:26:58;;;;;;;3.43;1.97;;;15.80;95.20;;;;;;4944005;29;20492;-68
2022/05/17 02:29:30;;;;;;;4.57;2.27;;;15.70;95.50;;;;;;4932427;29;20472;-69
2022/05/17 02:32:01;;;;;;;3.07;2.10;;;15.70;95.90;;;;;;4944616;29;20450;-68
2022/05/17 02:34:32;;;;;;;4.60;2.30;;;15.70;96.10;;;;;;4939476;29;20505;-69
2022/05/17 02:37:05;;;;;;;3.93;2.03;;;15.70;95.60;;;;;;4927923;29;20498;-67
2022/05/17 02:39:36;;;;;;;3.27;2.30;;;15.60;95.60;;;;;;4932736;29;20591;-68
2022/05/17 02:42:08;;;;;;;2.90;2.27;;;15.60;95.60;;;;;;4937544;29;20467;-67
2022/05/17 02:44:39;;;;;;;6.17;2.37;;;15.50;95.10;;;;;;4936231;29;20467;-68
2022/05/17 02:47:12;;;;;;;2.10;1.77;;;15.50;95.50;;;;;;4939998;29;20889;-67
2022/05/17 02:49:45;;;;;;;3.07;1.80;;;15.50;95.50;;;;;;4933604;29;20463;-69
2022/05/17 02:52:17;;;;;;;2.30;2.00;;;15.40;95.70;;;;;;4934369;29;20473;-67
2022/05/17 02:54:48;;;;;;;2.23;2.03;;;15.40;96.20;;;;;;4927848;29;20574;-68
2022/05/17 02:57:19;;;;;;;3.53;2.23;;;15.50;95.10;;;;;;4926471;29;20497;-69
2022/05/17 02:59:50;;;;;;;3.73;2.43;;;15.50;95.80;;;;;;4931451;29;20514;-68
2022/05/17 03:02:21;;;;;;;3.10;2.13;;;15.40;96.20;;;;;;4933136;29;20478;-65
2022/05/17 03:04:51;;;;;;;2.53;1.90;;;15.30;95.90;;;;;;4935620;29;20469;-67
2022/05/17 03:07:24;;;;;;;2.80;2.00;;;15.20;96.00;;;;;;4930454;29;20469;-66
2022/05/17 03:09:55;;;;;;;3.63;2.43;;;15.10;96.20;;;;;;4938357;29;20470;-64
2022/05/17 03:12:28;;;;;;;6.60;2.37;;;15.00;97.10;;;;;;4941070;29;20489;-66
2022/05/17 03:14:59;;;;;;;2.83;2.17;;;15.00;96.60;;;;;;4944239;29;20493;-64
2022/05/17 03:17:30;;;;;;;2.40;2.00;;;14.90;97.00;;;;;;4947817;29;20477;-68
2022/05/17 03:20:01;;;;;;;2.70;2.50;;;14.90;97.10;;;;;;4942011;29;20457;-66
2022/05/17 03:22:34;;;;;;;6.93;2.67;;;14.80;97.70;;;;;;4947891;29;20458;-66
2022/05/17 03:25:07;;;;;;;2.43;2.23;;;14.70;97.20;;;;;;4931821;29;20483;-64
2022/05/17 03:27:57;;;;;;;3.40;2.00;;;14.60;97.80;;;;;;4943249;29;20577;-65
2022/05/17 03:30:28;;;;;;;2.33;2.10;;;14.60;97.40;;;;;;4934527;29;20772;-65
2022/05/17 03:32:59;;;;;;;4.50;2.40;;;14.60;97.30;;;;;;4940198;29;20473;-63
2022/05/17 03:35:35;;;;;;;4.30;2.50;;;14.50;97.10;;;;;;4930488;29;20557;-65
2022/05/17 03:38:07;;;;;;;2.50;2.30;;;14.40;97.20;;;;;;4934208;29;20558;-65
2022/05/17 03:40:38;;;;;;;6.33;3.07;;;14.40;97.60;;;;;;4938269;29;20525;-65
2022/05/17 03:43:09;;;;;;;3.70;2.00;;;14.30;97.60;;;;;;4931024;29;20462;-66
2022/05/17 03:45:40;;;;;;;2.93;2.30;;;14.20;97.50;;;;;;4944601;29;20473;-66
2022/05/17 03:48:11;;;;;;;4.10;2.27;;;14.20;98.00;;;;;;4940193;29;20470;-65
2022/05/17 03:50:42;;;;;;;2.70;2.23;;;14.10;98.10;;;;;;4932667;29;20449;-65
2022/05/17 03:53:15;;;;;;;2.23;2.03;;;13.90;98.80;;;;;;4938613;29;20882;-63
2022/05/17 03:55:45;;;;;;;7.20;2.67;;;13.90;99.10;;;;;;4935440;29;20466;-66
2022/05/17 03:58:16;;;;;;;3.73;2.80;;;13.80;99.30;;;;;;4946869;29;20493;-65
2022/05/17 04:00:47;;;;;;;5.57;2.30;;;13.80;99.20;;;;;;4932353;29;20497;-63
2022/05/17 04:03:20;;;;;;;4.50;2.27;;;13.80;99.60;;;;;;4943237;29;20451;-64
2022/05/17 04:05:51;;;;;;;6.67;2.30;;;13.80;99.70;;;;;;4936533;29;20509;-64
2022/05/17 04:08:23;;;;;;;2.70;2.20;;;13.70;99.90;;;;;;4945563;29;20499;-62
2022/05/17 04:10:54;;;;;;;2.47;2.27;;;13.70;99.50;;;;;;4943810;29;20461;-64
2022/05/17 04:13:26;;;;;;;5.77;2.47;;;13.60;99.70;;;;;;4942330;29;20607;-64
2022/05/17 04:15:57;;;;;;;8.03;2.63;;;13.60;99.90;;;;;;4942050;29;20608;-65
2022/05/17 04:18:28;;;;;;;2.40;2.20;;;13.50;99.90;;;;;;4928714;29;20529;-65
2022/05/17 04:21:00;;;;;;;3.83;2.50;;;13.40;99.90;;;;;;4934105;29;20828;-64
2022/05/17 04:23:33;;;;;;;7.67;3.13;;;13.50;99.70;;;;;;4933682;29;20569;-65
2022/05/17 04:26:04;;;;;;;5.03;1.90;;;13.40;99.80;;;;;;4936319;29;20467;-65
2022/05/17 04:28:34;;;;;;;3.43;1.93;;;13.30;99.70;;;;;;4946876;29;20464;-65
2022/05/17 04:31:05;;;;;;;5.20;2.73;;;13.30;99.90;;;;;;4937426;29;20466;-65
2022/05/17 04:33:36;;;;;;;4.47;2.67;;;13.20;99.90;;;;;;4941102;29;20541;-65
2022/05/17 04:36:07;;;;;;;5.80;2.70;;;13.20;99.90;;;;;;4944187;29;20465;-65
2022/05/17 04:38:40;;;;;;;7.37;3.40;;;13.10;99.90;;;;;;4945846;29;20496;-65
2022/05/17 04:41:10;;;;;;;3.47;2.20;;;13.00;99.90;;;;;;4945537;29;20545;-65
2022/05/17 04:43:41;;;;;;;6.30;2.60;;;12.90;99.70;;;;;;4941984;29;20473;-65
2022/05/17 04:46:13;;;;;;;5.87;2.67;;;12.80;99.10;;;;;;4946434;29;20521;-65
2022/05/17 04:48:44;;;;;;;3.63;2.10;;;12.70;99.30;;;;;;4931777;29;20438;-65
2022/05/17 04:51:16;;;;;;;3.10;2.00;;;12.60;99.20;;;;;;4946848;29;20434;-65
2022/05/17 04:53:48;;;;;;;3.17;2.20;;;12.50;99.20;;;;;;4944777;29;20458;-65
2022/05/17 04:56:19;;;;;;;4.13;2.60;;;12.50;99.20;;;;;;4946165;29;20476;-65
2022/05/17 04:58:50;;;;;;;5.60;2.07;;;12.40;99.60;;;;;;4931341;29;20500;-65
2022/05/17 05:01:21;;;;;;;3.33;2.23;;;12.40;99.30;;;;;;4938971;29;20473;-64
2022/05/17 05:03:52;;;;;;;4.43;2.27;;;12.30;99.80;;;;;;4946043;29;20454;-64
2022/05/17 05:06:22;;;;;;;3.10;2.67;;;12.20;99.60;;;;;;4933094;29;20490;-64
2022/05/17 05:08:55;;;;;;;5.53;3.10;;;12.20;99.40;;;;;;4942723;29;20457;-65
2022/05/17 05:11:26;;;;;;;2.80;2.40;;;12.20;99.10;;;;;;4946316;29;20466;-64
2022/05/17 05:13:56;;;;;;;5.30;2.57;;;12.20;99.70;;;;;;4933660;29;20878;-65
2022/05/17 05:16:27;;;;;;;3.63;3.23;;;12.10;99.70;;;;;;4942452;29;20450;-64
2022/05/17 05:18:58;;;;;;;3.30;2.43;;;12.00;99.70;;;;;;4930275;29;20488;-64
2022/05/17 05:21:29;;;;;;;5.07;3.13;;;12.00;99.90;;;;;;4938202;29;20485;-64
2022/05/17 05:24:04;;;;;;;3.20;2.70;;;11.90;99.90;;;;;;4926757;29;20493;-65
2022/05/17 05:26:35;;;;;;;4.83;2.43;;;11.90;99.90;;;;;;4940760;29;20496;-64
2022/05/17 05:29:06;;;;;;;3.70;2.33;;;11.80;99.90;;;;;;4936251;29;20470;-64
2022/05/17 05:31:37;;;;;;;5.83;2.73;;;11.80;99.90;;;;;;4944463;29;20808;-65
2022/05/17 05:34:08;;;;;;;4.93;2.40;;;11.80;99.90;;;;;;4937251;29;20481;-64
2022/05/17 05:36:39;;;;;;;5.00;2.80;;;11.80;99.90;;;;;;4940226;29;20475;-64
2022/05/17 05:39:11;;;;;;;5.20;2.50;;;11.70;99.90;;;;;;4937563;29;20517;-65
2022/05/17 05:41:42;;;;;;;4.17;2.43;;;11.70;99.90;;;;;;4936387;29;20975;-65
2022/05/17 05:44:13;;;;;;;4.93;2.73;;;11.60;99.90;;;;;;4933054;29;20473;-65
2022/05/17 05:46:43;;;;;;;5.20;2.43;;;11.50;99.90;;;;;;4931022;29;20465;-65
2022/05/17 05:49:15;;;;;;;3.73;2.47;;;11.50;99.90;;;;;;4937354;29;20476;-64
2022/05/17 05:51:47;;;;;;;3.40;2.67;;;11.40;99.90;;;;;;4944756;29;20462;-64
2022/05/17 05:54:20;;;;;;;6.60;2.40;;;11.40;99.90;;;;;;4940257;29;20483;-65
2022/05/17 05:56:50;;;;;;;3.57;2.00;;;11.30;99.90;;;;;;4939699;29;20545;-65
2022/05/17 05:59:21;;;;;;;2.27;2.07;;;11.30;99.90;;;;;;4940572;29;20497;-64
2022/05/17 06:01:52;;;;;;;4.90;2.77;;;11.20;99.90;;;;;;4933593;29;20932;-65
2022/05/17 06:04:23;;;;;;;3.90;2.40;;;11.20;99.90;;;;;;4939832;29;20462;-65
2022/05/17 06:06:56;;;;;;;3.40;2.77;;;11.20;99.90;;;;;;4939104;29;20477;-65
2022/05/17 06:09:29;;;;;;;4.97;2.00;;;11.20;99.90;;;;;;4943203;29;20477;-64
2022/05/17 06:12:00;;;;;;;2.67;2.43;;;11.10;99.90;;;;;;4939443;29;20214;-64
2022/05/17 06:14:31;;;;;;;6.22;3.50;;;11.00;99.90;;;;;;4938103;29;20594;-64
2022/05/17 06:17:02;;;;;;;3.00;2.23;;;11.00;99.90;;;;;;4931472;29;20276;-64
2022/05/17 06:19:33;;;;;;;3.30;2.27;;;10.90;99.90;;;;;;4930650;29;20498;-64
2022/05/17 06:22:04;;;;;;;4.72;2.45;;;10.90;99.90;;;;;;4942568;29;20509;-64
2022/05/17 06:24:36;;;;;;;3.40;2.37;;;10.90;99.90;;;;;;4925086;29;20638;-64
2022/05/17 06:27:07;;;;;;;4.40;2.90;;;10.90;99.90;;;;;;4940826;29;20934;-64
2022/05/17 06:29:38;;;;;;;3.40;2.60;;;10.90;99.90;;;;;;4943725;29;20469;-63
2022/05/17 06:32:12;;;;;;;3.10;2.35;;;10.80;99.90;;;;;;4933811;29;20465;-65
2022/05/17 06:34:43;;;;;;;5.10;3.07;;;10.70;99.90;;;;;;4937003;29;20206;-64
2022/05/17 06:37:14;;;;;;;6.27;3.80;;;10.70;99.90;;;;;;4929242;29;20470;-64
2022/05/17 06:39:47;;;;;;;2.90;2.53;;;10.60;99.90;;;;;;4940669;29;20517;-64
2022/05/17 06:42:18;;;;;;;5.03;3.07;;;10.60;99.90;;;;;;4942510;29;20225;-64
2022/05/17 06:44:48;;;;;;;6.40;2.63;;;10.50;99.90;;;;;;4935164;29;20990;-64
2022/05/17 06:47:19;;;;;;;5.53;3.20;;;10.50;99.90;;;;;;4935306;29;20451;-64
2022/05/17 06:49:50;;;;;;;4.27;2.70;;;10.50;99.90;;;;;;4943038;29;20476;-64
2022/05/17 06:52:23;;;;;;;4.90;2.47;;;10.50;99.90;;;;;;4940280;29;20543;-65
2022/05/17 06:54:55;;;;;;;4.47;2.67;;;10.40;99.90;;;;;;4931319;29;20469;-64
2022/05/17 06:57:26;;;;;;;5.43;2.80;;;10.50;99.90;;;;;;4941337;29;20221;-64
2022/05/17 06:59:57;;;;;;;6.20;3.30;;;10.40;99.90;;;;;;4934376;29;20229;-65
2022/05/17 07:02:28;;;;;;;6.07;2.47;;;10.40;99.90;;;;;;4945777;29;20202;-64
2022/05/17 07:04:59;;;;;;;4.47;2.50;;;10.50;99.90;;;;;;4937927;29;20509;-64
2022/05/17 07:07:32;;;;;;;3.50;2.38;;;10.60;99.90;;;;;;4936450;29;20207;-64
2022/05/17 07:13:10;;;;;;;5.00;3.10;;;10.70;99.90;;;;;;4933366;29;20469;-64
2022/05/17 07:15:42;;;;;;;5.20;2.80;;;10.70;99.90;;;;;;4942978;29;20465;-64
2022/05/17 07:18:17;;;;;;;3.20;2.40;;;10.70;99.90;;;;;;4931477;29;20463;-66
2022/05/17 07:20:49;;;;;;;8.80;2.73;;;10.70;99.90;;;;;;4940069;29;20518;-65
2022/05/17 07:23:21;;;;;;;2.93;2.27;;;10.60;99.90;;;;;;4946215;29;20577;-64
2022/05/17 07:25:54;;;;;;;6.50;3.30;;;10.50;99.90;;;;;;4945461;29;20479;-64
2022/05/17 07:28:26;;;;;;;5.57;2.80;;;10.40;99.90;;;;;;4932847;29;20228;-65
2022/05/17 07:30:57;;;;;;;2.90;2.13;;;10.40;99.90;;;;;;4946329;29;20472;-65
2022/05/17 07:33:28;;;;;;;2.75;2.30;;;10.30;99.90;;;;;;4942797;29;20519;-65
2022/05/17 07:35:59;;;;;;;4.10;2.30;;;10.20;99.90;;;;;;4938208;29;20232;-65
2022/05/17 07:38:29;;;;;;;4.38;3.05;;;10.20;99.90;;;;;;4928130;29;20466;-66
2022/05/17 07:41:02;;;;;;;5.93;2.80;;;10.10;99.90;;;;;;4936300;29;20245;-65
2022/05/17 07:43:33;;;;;;;3.83;2.63;;;10.10;99.90;;;;;;4932424;29;20969;-65
2022/05/17 07:46:04;;;;;;;2.80;2.60;;;10.10;99.90;;;;;;4945114;29;20213;-65
2022/05/17 07:48:35;;;;;;;3.15;2.50;;;10.00;99.90;;;;;;4947326;29;20257;-65
2022/05/17 07:51:06;;;;;;;3.53;2.87;;;10.00;99.90;;;;;;4934299;29;20197;-64
2022/05/17 07:53:42;;;;;;;4.60;2.50;;;9.90;99.90;;;;;;4945425;29;20484;-65
2022/05/17 07:56:15;;;;;;;8.87;3.17;;;10.00;99.90;;;;;;4944501;29;20474;-65
2022/05/17 07:58:45;;;;;;;3.93;2.77;;;10.00;99.90;;;;;;4935395;29;20488;-65
2022/05/17 08:01:18;;;;;;;4.37;3.00;;;10.00;99.90;;;;;;4935754;29;20996;-65
2022/05/17 08:03:51;;;;;;;4.22;2.67;;;10.00;99.90;;;;;;4938594;29;20524;-65
2022/05/17 08:06:22;;;;;;;3.30;2.53;;;10.00;99.90;;;;;;4946585;29;20309;-64
2022/05/17 08:08:53;;;;;;;3.20;2.60;;;10.10;99.90;;;;;;4941005;29;20650;-64
2022/05/17 08:11:26;;;;;;;5.20;2.90;;;10.10;99.90;;;;;;4940734;29;20805;-65
2022/05/17 08:13:57;;;;;;;4.57;3.00;;;10.20;99.90;;;;;;4937969;29;20544;-63
2022/05/17 08:16:44;;;;;;;3.27;2.63;;;10.30;99.90;;;;;;4940940;29;20281;-65
2022/05/17 08:19:15;;;;;;;2.70;2.47;;;10.30;99.90;;;;;;4936467;29;20472;-64
2022/05/17 08:21:46;;;;;;;3.10;2.30;;;10.30;99.90;;;;;;4933580;29;20497;-64
2022/05/17 08:24:17;;;;;;;6.00;2.58;;;10.30;99.90;;;;;;4937026;29;20473;-63
2022/05/17 08:29:37;;;;;;;5.28;3.00;;;10.40;99.90;;;;;;4937605;29;20214;-64
2022/05/17 08:34:56;;;;;;;4.77;3.03;;;10.40;99.90;;;;;;4943795;29;20213;-64
2022/05/17 08:37:27;;;;;;;3.30;2.53;;;10.30;99.90;;;;;;4939947;29;21800;-66
2022/05/17 08:39:58;;;;;;;3.97;2.57;;;10.40;99.90;;;;;;4938798;29;20458;-65
2022/05/17 08:42:38;;;;;;;4.63;2.20;;;10.40;99.90;;;;;;4934629;29;20549;-65
2022/05/17 08:45:16;;;;;;;5.37;2.70;;;10.40;99.90;;;;;;4928046;29;20545;-65
2022/05/17 08:47:52;;;;;;;7.43;3.00;;;10.40;99.90;;;;;;4945284;29;20478;-64
2022/05/17 08:50:35;;;;;;;5.37;3.53;;;10.30;99.90;;;;;;4944175;29;20470;-64
2022/05/17 08:53:07;;;;;;;5.90;2.57;;;10.40;99.90;;;;;;4931461;29;20470;-64
2022/05/17 08:55:42;;;;;;;3.67;2.63;;;10.40;99.90;;;;;;4938776;29;20467;-64
2022/05/17 08:58:21;;;;;;;5.23;2.77;;;10.40;99.90;;;;;;4936834;29;20464;-63
2022/05/17 09:01:01;;;;;;;4.17;2.77;;;10.40;99.90;;;;;;4945317;29;20513;-63
2022/05/17 09:03:45;;;;;;;5.67;2.50;;;10.40;99.90;;;;;;4935645;29;20472;-64
2022/05/17 09:06:23;;;;;;;3.92;3.03;;;10.40;99.90;;;;;;4938084;29;20550;-64
2022/05/17 09:09:00;;;;;;;5.97;2.90;;;10.30;99.90;;;;;;4938275;29;20239;-64
2022/05/17 09:11:39;;;;;;;3.33;3.03;;;10.30;99.90;;;;;;4941520;29;20467;-64
2022/05/17 09:14:17;;;;;;;3.80;2.70;;;10.20;99.90;;;;;;4936500;29;20489;-64
2022/05/17 09:17:00;;;;;;;4.60;3.30;;;10.20;99.90;;;;;;4932620;29;20458;-64
2022/05/17 09:19:31;;;;;;;6.07;2.90;;;10.20;99.90;;;;;;4939690;29;20461;-64
2022/05/17 09:22:02;;;;;;;6.63;5.10;;;10.10;99.90;;;;;;4944611;29;20500;-64
2022/05/17 09:24:39;;;;;;;4.33;2.90;;;10.00;99.90;;;;;;4937903;29;20484;-63
2022/05/17 09:27:12;;;;;;;3.30;2.23;;;10.00;99.90;;;;;;4942921;29;20477;-64
2022/05/17 09:29:48;;;;;;;3.67;2.67;;;10.00;99.90;;;;;;4943992;29;20799;-64
2022/05/17 09:32:26;;;;;;;3.53;3.10;;;9.90;99.90;;;;;;4944341;29;20592;-64
2022/05/17 09:35:01;;;;;;;4.10;2.63;;;9.80;99.90;;;;;;4944601;29;20476;-63
2022/05/17 09:37:36;;;;;;;3.40;2.50;;;9.80;99.90;;;;;;4939830;29;20460;-63
2022/05/17 09:40:11;;;;;;;3.33;2.60;;;9.70;99.90;;;;;;4940351;29;20210;-63
2022/05/17 09:42:52;;;;;;;5.63;3.38;;;9.80;99.90;;;;;;4927933;29;20510;-63
2022/05/17 09:45:49;;;;;;;6.55;3.05;;;9.80;99.90;;;;;;4937473;29;20297;-63
2022/05/17 09:48:33;;;;;;;3.80;2.90;;;9.70;99.90;;;;;;4940736;29;20202;-64
2022/05/17 09:53:53;;;;;;;3.58;2.63;;;9.70;99.90;;;;;;4939806;29;20211;-63
2022/05/17 09:56:28;;;;;;;2.97;2.70;;;9.80;99.90;;;;;;4937457;28;20714;-64
2022/05/17 09:58:59;;;;;;;3.07;2.80;;;9.80;99.90;;;;;;4941227;29;20233;-64
2022/05/17 10:01:40;;;;;;;6.40;3.27;;;9.80;99.90;;;;;;4939125;29;20585;-63
2022/05/17 10:04:14;;;;;;;4.75;2.92;;;9.80;99.90;;;;;;4941823;29;20818;-63
2022/05/17 10:06:47;;;;;;;4.67;2.80;;;9.80;99.90;;;;;;4943752;29;20308;-63
2022/05/17 10:09:30;;;;;;;6.30;3.20;;;9.80;99.90;;;;;;4941944;29;20570;-64
2022/05/17 10:12:05;;;;;;;3.57;2.93;;;9.80;99.90;;;;;;4926010;29;20214;-63
2022/05/17 10:14:43;;;;;;;4.90;3.20;;;9.90;99.90;;;;;;4930677;29;20517;-64
2022/05/17 10:17:21;;;;;;;8.73;3.03;;;9.90;99.90;;;;;;4931606;29;20525;-64
2022/05/17 10:19:57;;;;;;;4.43;3.30;;;9.80;99.90;;;;;;4935134;29;20786;-63
2022/05/17 10:22:32;;;;;;;6.60;3.57;;;9.70;99.90;;;;;;4928370;29;20230;-64
2022/05/17 10:25:09;;;;;;;3.60;3.30;;;9.70;99.90;;;;;;4939715;29;20472;-64
2022/05/17 10:27:44;;;;;;;6.97;3.90;;;9.60;99.90;;;;;;4935343;29;20462;-64
2022/05/17 10:30:19;;;;;;;3.88;2.80;;;9.60;99.90;;;;;;4933834;29;20473;-64
2022/05/17 10:32:59;;;;;;;4.38;3.25;;;9.50;99.90;;;;;;4937884;29;20201;-65
2022/05/17 10:35:34;;;;;;;3.33;2.92;;;9.40;99.90;;;;;;4942275;29;20202;-64
2022/05/17 10:38:10;;;;;;;5.93;3.13;;;9.40;99.90;;;;;;4938423;29;20289;-64
2022/05/17 10:40:45;;;;;;;8.40;3.70;;;9.40;99.90;;;;;;4942663;29;20469;-64
2022/05/17 10:43:18;;;;;;;4.45;3.10;;;9.30;99.90;;;;;;4930545;29;20523;-64
2022/05/17 10:46:00;;;;;;;6.50;3.55;;;9.30;99.90;;;;;;4925737;29;20222;-64
2022/05/17 10:48:44;;;;;;;4.90;3.28;;;9.30;99.90;;;;;;4935977;29;20221;-64
2022/05/17 10:51:21;;;;;;;4.35;3.72;;;9.20;99.90;;;;;;4940448;29;20216;-64
2022/05/17 10:54:07;;;;;;;5.00;3.03;;;9.10;99.90;;;;;;4937653;29;20194;-64
2022/05/17 10:56:49;;;;;;;7.15;3.30;;;9.00;99.90;;;;;;4935585;29;20336;-64
2022/05/17 10:59:28;;;;;;;6.43;3.50;;;9.00;99.90;;;;;;4929708;29;20209;-64
2022/05/17 11:02:18;;;;;;;6.47;3.33;;;9.00;99.90;;;;;;4935154;29;20230;-64
2022/05/17 11:05:09;;;;;;;10.27;4.15;;;8.90;99.90;;;;;;4934320;29;20700;-64
2022/05/17 11:07:56;;;;;;;5.82;2.75;;;8.80;99.90;;;;;;4942232;29;20218;-64
2022/05/17 11:10:41;;;;;;;4.18;2.67;;;8.70;99.90;;;;;;4927623;29;20214;-64
2022/05/17 11:13:17;;;;;;;5.03;2.70;;;8.60;99.90;;;;;;4938510;29;20213;-64
2022/05/17 11:15:53;;;;;;;5.72;3.47;;;8.50;99.90;;;;;;4941112;29;20210;-64
2022/05/17 11:18:32;;;;;;;5.88;3.38;;;8.50;99.90;;;;;;4936198;29;20202;-64
2022/05/17 11:21:09;;;;;;;5.00;3.50;;;8.50;99.90;;;;;;4942340;29;20570;-64
2022/05/17 11:23:48;;;;;;;4.15;3.08;;;8.50;99.90;;;;;;4940425;29;20240;-63
2022/05/17 11:27:00;;;;;;;4.70;3.05;;;8.40;99.90;;;;;;4939991;29;20210;-63
2022/05/17 11:30:12;;;;;;;10.88;3.75;;;8.40;99.90;;;;;;4939178;29;20890;-63
2022/05/17 11:33:03;;;;;;;6.25;4.28;;;8.40;99.90;;;;;;4936952;29;20210;-64
2022/05/17 11:35:51;;;;;;;4.43;3.22;;;8.30;99.90;;;;;;4938296;29;20233;-64
2022/05/17 11:38:48;;;;;;;5.72;4.10;;;8.30;99.90;;;;;;4945436;29;20209;-64
2022/05/17 11:41:22;;;;;;;5.25;3.13;;;8.30;99.90;;;;;;4933309;29;20221;-64
2022/05/17 11:44:14;;;;;;;4.40;3.05;;;8.40;99.90;;;;;;4934528;29;20213;-64
2022/05/17 11:46:50;;;;;;;5.80;3.10;;;8.20;99.90;;;;;;4946198;29;20211;-64
2022/05/17 11:49:45;;;;;;;6.07;3.47;;;8.10;99.90;;;;;;4938356;29;20210;-64
2022/05/17 11:52:25;;;;;;;5.75;3.85;;;8.10;99.90;;;;;;4945979;29;20214;-64
2022/05/17 11:55:02;;;;;;;5.43;3.53;;;8.10;99.90;;;;;;4937216;29;20217;-64
2022/05/17 11:58:08;;;;;;;5.00;3.50;;;8.10;99.90;;;;;;4932826;29;20206;-64
2022/05/17 12:00:51;;;;;;;5.03;3.70;;;8.10;99.90;;;;;;4933924;29;20223;-63
2022/05/17 12:04:00;;;;;;;4.60;3.22;;;8.10;99.90;;;;;;4945383;29;20245;-64
2022/05/17 12:07:05;;;;;;;7.78;3.90;;;8.10;99.90;;;;;;4942415;29;20809;-63
2022/05/17 12:09:38;;;;;;;4.65;3.70;;;8.10;99.90;;;;;;4937972;29;20684;-64
2022/05/17 12:12:54;;;;;;;7.60;4.47;;;8.20;99.90;;;;;;4931988;29;20210;-64
2022/05/17 12:15:45;;;;;;;5.53;3.58;;;8.20;99.90;;;;;;4889425;29;20231;-64
2022/05/17 12:18:29;;;;;;;6.78;3.75;;;8.10;99.90;;;;;;4905332;29;20724;-64
2022/05/17 12:21:42;;;;;;;7.95;3.58;;;8.00;99.90;;;;;;4890159;29;20658;-64
2022/05/17 12:24:22;;;;;;;6.00;4.10;;;8.00;99.90;;;;;;4886337;29;20220;-64
2022/05/17 12:27:12;;;;;;;7.80;3.75;;;8.00;99.90;;;;;;4899555;29;20215;-64
2022/05/17 12:32:45;;;;;;;5.95;4.05;;;8.00;99.90;;;;;;4906112;29;20215;-64
2022/05/17 12:35:23;;;;;;;4.30;3.70;;;8.10;99.90;;;;;;4899357;29;20215;-64
2022/05/17 12:37:55;;;;;;;6.07;3.60;;;8.10;99.90;;;;;;4905338;29;20203;-64
2022/05/17 12:43:27;;;;;;;4.78;3.67;;;8.20;99.90;;;;;;4903200;29;20220;-64
2022/05/17 12:46:10;;;;;;;5.43;3.83;;;8.20;99.90;;;;;;4902112;29;20222;-63
2022/05/17 12:48:47;;;;;;;5.55;3.90;;;8.30;99.90;;;;;;4899546;29;20338;-63
2022/05/17 12:51:20;;;;;;;5.43;3.60;;;8.30;99.90;;;;;;4923478;29;20210;-64
2022/05/17 12:53:54;;;;;;;4.55;3.55;;;8.30;99.90;;;;;;4944782;29;20224;-63
2022/05/17 12:56:43;;;;;;;4.95;4.00;;;8.30;99.90;;;;;;4942206;29;20234;-63
2022/05/17 12:59:16;;;;;;;3.92;3.53;;;8.40;99.90;;;;;;4938549;29;20216;-63
2022/05/17 13:01:56;;;;;;;7.60;4.13;;;8.40;99.90;;;;;;4945078;29;20207;-64
2022/05/17 13:04:32;;;;;;;6.82;4.10;;;8.40;99.90;;;;;;4940847;29;20321;-63
2022/05/17 13:07:13;;;;;;;9.00;4.78;;;8.40;99.90;;;;;;4936001;29;20274;-63
2022/05/17 13:10:00;;;;;;;6.45;4.30;;;8.40;99.90;;;;;;4932265;29;20237;-64
2022/05/17 13:12:32;;;;;;;5.18;4.03;;;8.30;99.90;;;;;;4940479;29;20341;-63
2022/05/17 13:15:07;;;;;;;9.93;5.22;;;8.30;99.90;;;;;;4935381;29;20558;-64
2022/05/17 13:17:41;;;;;;;7.53;3.75;;;8.40;99.90;;;;;;4943170;29;20224;-63
2022/05/17 13:20:20;;;;;;;9.48;4.47;;;8.50;99.90;;;;;;4935832;29;20206;-63
2022/05/17 13:22:54;;;;;;;6.90;3.40;;;8.60;99.90;;;;;;4934557;29;20718;-63
2022/05/17 13:25:33;;;;;;;5.95;4.25;;;8.60;99.90;;;;;;4938238;29;20229;-63
2022/05/17 13:28:03;;;;;;;5.82;4.57;;;8.80;99.90;;;;;;4931289;29;20559;-65
2022/05/17 13:30:37;;;;;;;5.13;4.38;;;8.80;99.90;;;;;;4942018;29;20259;-64
2022/05/17 13:33:10;;;;;;;7.28;4.63;;;8.80;99.90;;;;;;4929660;29;20241;-64
2022/05/17 13:35:43;;;;;;;7.50;4.68;;;8.90;99.90;;;;;;4937528;29;20315;-64
2022/05/17 13:38:25;;;;;;;5.25;4.35;;;9.00;99.90;;;;;;4942715;29;20266;-63
2022/05/17 13:40:57;;;;;;;6.20;4.68;;;9.10;99.90;;;;;;4937089;29;20206;-63
2022/05/17 13:43:38;;;;;;;7.53;4.37;;;9.30;99.90;;;;;;4940178;29;20264;-64
2022/05/17 13:46:13;;;;;;;6.70;4.03;;;9.40;99.90;;;;;;4935205;29;20822;-63
2022/05/17 13:49:06;;;;;;;6.72;4.82;;;9.50;99.90;;;;;;4926497;29;20241;-63
2022/05/17 13:51:50;;;;;;;6.68;4.25;;;9.60;99.90;;;;;;4941085;29;20324;-63
2022/05/17 13:54:32;;;;;;;8.25;4.40;;;9.70;99.90;;;;;;4928012;29;20230;-64